createdAt,value
2022-09-25T00:02:08.429Z,35.90
2022-09-25T00:06:27.972Z,32.10
2022-09-25T00:10:48.373Z,34.42
2022-09-25T00:15:08.590Z,37.03
2022-09-25T00:19:44.637Z,28.45
2022-09-25T00:24:07.562Z,31.08
2022-09-25T00:28:24.744Z,32.60
2022-09-25T00:32:42.121Z,30.92
2022-09-25T00:36:59.337Z,33.95
2022-09-25T00:41:21.863Z,32.10
2022-09-25T00:45:39.529Z,28.67
2022-09-25T00:49:59.937Z,32.20
2022-09-25T00:54:22.466Z,27.83
2022-09-25T00:58:41.031Z,27.35
2022-09-25T01:02:58.745Z,25.77
2022-09-25T01:07:16.751Z,26.92
2022-09-25T01:11:34.617Z,27.20
2022-09-25T01:16:24.086Z,27.42
2022-09-25T01:20:50.624Z,30.73
2022-09-25T01:25:30.535Z,31.38
2022-09-25T01:30:19.656Z,27.83
2022-09-25T01:35:15.351Z,30.33
2022-09-25T01:39:38.966Z,32.15
2022-09-25T01:44:36.821Z,27.58
2022-09-25T01:48:58.037Z,29.58
2022-09-25T01:53:23.376Z,25.52
2022-09-25T01:58:10.961Z,24.50
2022-09-25T02:02:35.201Z,28.30
2022-09-25T02:06:55.481Z,25.33
2022-09-25T02:11:14.030Z,25.20
2022-09-25T02:15:35.113Z,25.20
2022-09-25T02:20:11.051Z,23.88
2022-09-25T02:24:58.462Z,21.15
2022-09-25T02:29:17.274Z,23.52
2022-09-25T02:33:35.221Z,21.85
2022-09-25T02:37:56.155Z,28.98
2022-09-25T02:42:40.967Z,24.77
2022-09-25T02:47:24.247Z,30.10
2022-09-25T02:51:56.598Z,30.67
2022-09-25T02:56:44.878Z,29.95
2022-09-25T03:01:05.766Z,28.02
2022-09-25T03:05:24.986Z,25.83
2022-09-25T03:09:46.859Z,29.30
2022-09-25T03:14:04.572Z,30.75
2022-09-25T03:18:22.295Z,25.90
2022-09-25T03:22:39.572Z,31.55
2022-09-25T03:26:56.936Z,28.88
2022-09-25T03:31:14.254Z,26.75
2022-09-25T03:35:31.457Z,29.17
2022-09-25T03:39:48.610Z,33.83
2022-09-25T03:44:05.833Z,39.88
2022-09-25T03:48:23.035Z,32.03
2022-09-25T03:52:40.988Z,45.80
2022-09-25T03:56:58.080Z,35.40
2022-09-25T04:01:15.934Z,38.17
2022-09-25T04:05:33.121Z,46.22
2022-09-25T04:09:50.782Z,58.90
2022-09-25T04:14:07.890Z,47.30
2022-09-25T04:18:25.394Z,36.65
2022-09-25T04:22:42.519Z,42.85
2022-09-25T04:27:00.516Z,36.83
2022-09-25T04:31:17.663Z,35.57
2022-09-25T04:35:34.991Z,42.53
2022-09-25T04:39:56.922Z,41.50
2022-09-25T04:44:14.103Z,70.43
2022-09-25T04:48:32.262Z,67.28
2022-09-25T04:52:51.333Z,39.40
2022-09-25T04:57:32.713Z,52.70
2022-09-25T05:01:53.259Z,75.28
2022-09-25T05:06:10.498Z,72.07
2022-09-25T05:10:30.297Z,46.10
2022-09-25T05:14:47.699Z,48.35
2022-09-25T05:19:04.835Z,107.40
2022-09-25T05:23:24.017Z,59.90
2022-09-25T05:27:41.346Z,54.60
2022-09-25T05:31:58.527Z,90.20
2022-09-25T05:36:18.737Z,62.88
2022-09-25T05:40:37.386Z,53.97
2022-09-25T05:44:54.541Z,56.15
2022-09-25T05:49:11.636Z,64.00
2022-09-25T05:53:30.522Z,105.72
2022-09-25T06:02:04.868Z,92.85
2022-09-25T06:06:26.720Z,100.05
2022-09-25T06:10:44.668Z,41.67
2022-09-25T06:15:01.763Z,41.40
2022-09-25T06:19:18.888Z,39.72
2022-09-25T06:23:36.004Z,41.28
2022-09-25T06:27:57.607Z,39.20
2022-09-25T06:32:16.947Z,32.95
2022-09-25T06:36:34.277Z,41.42
2022-09-25T06:40:51.393Z,39.90
2022-09-25T06:45:10.857Z,35.53
2022-09-25T06:49:28.055Z,31.85
2022-09-25T06:53:45.209Z,31.92
2022-09-25T06:58:04.329Z,34.58
2022-09-25T07:02:40.239Z,32.88
2022-09-25T07:06:59.044Z,37.72
2022-09-25T07:11:21.565Z,33.50
2022-09-25T07:15:39.294Z,31.02
2022-09-25T07:19:56.602Z,32.10
2022-09-25T07:24:13.784Z,29.83
2022-09-25T07:28:30.998Z,26.85
2022-09-25T07:32:48.139Z,25.15
2022-09-25T07:37:05.256Z,24.95
2022-09-25T07:41:23.614Z,33.53
2022-09-25T07:45:41.351Z,31.85
2022-09-25T07:49:58.961Z,25.67
2022-09-25T07:54:16.284Z,37.63
2022-09-25T07:58:35.065Z,25.90
2022-09-25T08:07:13.137Z,25.80
2022-09-25T08:11:31.182Z,28.85
2022-09-25T08:15:48.796Z,28.15
2022-09-25T08:20:07.113Z,30.15
2022-09-25T08:24:24.222Z,29.45
2022-09-25T08:28:41.856Z,31.50
2022-09-25T08:32:59.108Z,27.02
2022-09-25T08:37:17.106Z,29.15
2022-09-25T08:41:50.605Z,29.90
2022-09-25T08:46:37.382Z,27.40
2022-09-25T08:50:54.668Z,26.30
2022-09-25T08:55:58.690Z,27.90
2022-09-25T09:00:23.813Z,25.20
2022-09-25T09:04:56.451Z,27.20
2022-09-25T09:09:27.284Z,25.17
2022-09-25T09:13:53.300Z,24.52
2022-09-25T09:18:27.360Z,26.05
2022-09-25T09:22:53.248Z,23.40
2022-09-25T09:27:30.696Z,24.25
2022-09-25T09:31:58.742Z,24.65
2022-09-25T09:36:40.844Z,23.13
2022-09-25T09:41:12.932Z,23.80
2022-09-25T09:45:54.147Z,22.75
2022-09-25T09:50:41.826Z,18.65
2022-09-25T09:55:24.857Z,21.00
2022-09-25T10:00:06.712Z,22.30
2022-09-25T10:04:29.990Z,19.88
2022-09-25T10:08:47.144Z,20.30
2022-09-25T10:13:17.665Z,20.13
2022-09-25T10:17:37.875Z,20.83
2022-09-25T10:22:16.356Z,19.85
2022-09-25T10:26:36.899Z,19.27
2022-09-25T10:30:55.169Z,18.95
2022-09-25T10:35:18.796Z,17.05
2022-09-25T10:39:45.202Z,17.40
2022-09-25T10:44:03.276Z,17.58
2022-09-25T10:48:54.415Z,16.77
2022-09-25T10:53:30.398Z,16.23
2022-09-25T10:57:48.651Z,16.38
2022-09-25T11:02:20.013Z,18.50
2022-09-25T11:06:47.676Z,16.80
2022-09-25T11:11:09.265Z,18.02
2022-09-25T11:15:27.628Z,13.07
2022-09-25T11:19:44.770Z,14.80
2022-09-25T11:24:17.374Z,12.15
2022-09-25T11:28:44.562Z,12.15
2022-09-25T11:33:10.776Z,14.15
2022-09-25T11:37:49.652Z,13.57
2022-09-25T11:42:18.352Z,12.38
2022-09-25T11:46:51.565Z,12.40
2022-09-25T11:51:47.599Z,11.48
2022-09-25T11:56:33.247Z,11.27
2022-09-25T12:01:34.954Z,12.35
2022-09-25T12:06:13.475Z,10.02
2022-09-25T12:10:59.250Z,10.68
2022-09-25T12:15:43.065Z,10.05
2022-09-25T12:20:27.768Z,11.20
2022-09-25T12:25:11.433Z,9.57
2022-09-25T12:30:06.700Z,9.75
2022-09-25T12:34:33.021Z,10.55
2022-09-25T12:39:25.567Z,9.95
2022-09-25T12:43:56.311Z,12.82
2022-09-25T12:48:19.284Z,12.15
2022-09-25T12:52:42.308Z,10.02
2022-09-25T12:57:13.858Z,10.38
2022-09-25T13:01:45.385Z,11.60
2022-09-25T13:06:09.172Z,9.43
2022-09-25T13:10:54.059Z,11.63
2022-09-25T13:15:24.020Z,10.48
2022-09-25T13:19:41.444Z,9.80
2022-09-25T13:24:00.216Z,10.40
2022-09-25T13:28:26.295Z,10.32
2022-09-25T13:32:49.049Z,10.77
2022-09-25T13:37:09.995Z,9.10
2022-09-25T13:41:29.911Z,7.97
2022-09-25T13:45:48.604Z,9.35
2022-09-25T13:50:11.622Z,11.25
2022-09-25T13:54:28.795Z,12.65
2022-09-25T13:59:16.037Z,11.43
2022-09-25T14:03:44.016Z,9.73
2022-09-25T14:08:11.509Z,11.20
2022-09-25T14:12:42.406Z,15.07
2022-09-25T14:17:00.328Z,11.73
2022-09-25T14:21:20.112Z,8.15
2022-09-25T14:25:38.940Z,11.10
2022-09-25T14:30:13.854Z,9.85
2022-09-25T14:35:09.789Z,10.18
2022-09-25T14:39:37.169Z,9.68
2022-09-25T14:44:35.990Z,9.85
2022-09-25T14:49:16.385Z,7.60
2022-09-25T14:53:50.643Z,9.02
2022-09-25T14:58:10.184Z,6.80
2022-09-25T15:02:37.253Z,7.32
2022-09-25T15:07:01.551Z,7.78
2022-09-25T15:11:20.431Z,10.65
2022-09-25T15:19:59.005Z,8.00
2022-09-25T15:24:20.479Z,8.13
2022-09-25T15:28:41.251Z,10.02
2022-09-25T15:33:01.036Z,10.80
2022-09-25T15:37:27.577Z,10.02
2022-09-25T15:41:45.033Z,14.13
2022-09-25T15:46:07.925Z,14.45
2022-09-25T15:50:27.777Z,14.65
2022-09-25T15:54:46.211Z,12.00
2022-09-25T15:59:14.840Z,9.55
2022-09-25T16:03:50.866Z,5.33
2022-09-25T16:08:32.029Z,5.18
2022-09-25T16:12:50.467Z,4.18
2022-09-25T16:17:17.109Z,3.03
2022-09-25T16:21:39.505Z,3.80
2022-09-25T16:25:58.506Z,3.20
2022-09-25T16:30:18.276Z,3.30
2022-09-25T16:34:38.624Z,2.83
2022-09-25T16:39:07.858Z,3.30
2022-09-25T16:47:48.338Z,3.63
2022-09-25T16:52:08.500Z,5.82
2022-09-25T16:56:29.511Z,3.65
2022-09-25T17:00:46.745Z,5.05
2022-09-25T17:05:18.787Z,4.57
2022-09-25T17:09:36.027Z,6.82
2022-09-25T17:13:53.367Z,4.13
2022-09-25T17:18:21.401Z,6.22
2022-09-25T17:22:39.043Z,5.72
2022-09-25T17:26:56.368Z,8.00
2022-09-25T17:31:20.055Z,6.38
2022-09-25T17:35:44.837Z,6.22
2022-09-25T17:40:03.601Z,6.40
2022-09-25T17:44:23.530Z,4.97
2022-09-25T17:48:40.745Z,5.85
2022-09-25T17:52:58.927Z,7.85
2022-09-25T17:57:16.064Z,7.27
2022-09-25T18:01:39.221Z,4.93
2022-09-25T18:05:57.899Z,6.35
2022-09-25T18:10:15.180Z,9.13
2022-09-25T18:14:34.081Z,9.88
2022-09-25T18:23:26.920Z,11.45
2022-09-25T18:27:44.572Z,10.38
2022-09-25T18:32:02.003Z,8.52
2022-09-25T18:36:19.165Z,11.25
2022-09-25T18:40:36.732Z,13.98
2022-09-25T18:44:53.971Z,34.40
2022-09-25T18:49:11.279Z,19.10
2022-09-25T18:53:29.338Z,22.55
2022-09-25T18:57:46.787Z,25.30
2022-09-25T19:02:04.122Z,21.25
2022-09-25T19:06:21.506Z,21.88
2022-09-25T19:10:38.685Z,20.63
2022-09-25T19:14:55.798Z,19.45
2022-09-25T19:19:13.541Z,21.23
2022-09-25T19:23:34.991Z,21.50
2022-09-25T19:27:52.132Z,19.27
2022-09-25T19:32:11.119Z,21.63
2022-09-25T19:40:48.681Z,76.07
2022-09-25T19:45:06.758Z,43.42
2022-09-25T19:49:23.877Z,42.33
2022-09-25T19:53:41.426Z,123.13
2022-09-25T19:57:58.579Z,62.88
2022-09-25T20:02:15.829Z,190.13
2022-09-25T20:06:36.703Z,123.13
2022-09-25T20:10:53.872Z,91.45
2022-09-25T20:15:11.049Z,72.13
2022-09-25T20:19:28.390Z,70.95
2022-09-25T20:23:49.445Z,117.60
2022-09-25T20:28:06.592Z,67.68
2022-09-25T20:32:23.743Z,75.03
2022-09-25T20:36:41.108Z,86.93
2022-09-25T20:41:00.221Z,139.60
2022-09-25T20:45:17.670Z,91.88
2022-09-25T20:49:35.331Z,275.55
2022-09-25T20:53:54.496Z,93.60
2022-09-25T20:58:11.674Z,109.68
2022-09-25T21:02:29.397Z,66.40
2022-09-25T21:06:46.743Z,98.55
2022-09-25T21:11:04.315Z,81.38
2022-09-25T21:15:21.598Z,79.70
2022-09-25T21:19:40.071Z,92.38
2022-09-25T21:23:58.340Z,66.60
2022-09-25T21:28:15.447Z,226.10
2022-09-25T21:32:32.607Z,125.88
2022-09-25T21:36:49.803Z,88.70
2022-09-25T21:41:08.931Z,93.47
2022-09-25T21:45:26.091Z,87.57
2022-09-25T21:49:43.220Z,98.00
2022-09-25T21:54:01.174Z,90.30
2022-09-25T21:58:18.426Z,71.13
2022-09-25T22:02:35.553Z,95.10
2022-09-25T22:06:52.695Z,78.88
2022-09-25T22:11:11.689Z,100.50
2022-09-25T22:15:28.848Z,88.88
2022-09-25T22:19:45.982Z,140.63
2022-09-25T22:24:04.787Z,101.20
2022-09-25T22:28:22.130Z,64.28
2022-09-25T22:32:39.270Z,79.57
2022-09-25T22:36:59.978Z,104.78
2022-09-25T22:41:17.337Z,86.30
2022-09-25T22:45:34.566Z,116.57
2022-09-25T22:49:51.744Z,123.10
2022-09-25T22:54:13.692Z,86.07
2022-09-25T22:58:30.850Z,72.32
2022-09-25T23:02:47.988Z,95.35
2022-09-25T23:07:05.134Z,108.50
2022-09-25T23:11:23.923Z,119.40
2022-09-25T23:15:41.042Z,83.90
2022-09-25T23:19:58.211Z,89.60
2022-09-25T23:24:18.659Z,61.22
2022-09-25T23:28:37.742Z,58.00
2022-09-25T23:32:54.971Z,50.90
2022-09-25T23:37:13.628Z,162.02
2022-09-25T23:41:34.403Z,58.95
2022-09-25T23:45:51.822Z,71.90
2022-09-25T23:50:09.348Z,67.95
2022-09-25T23:54:26.752Z,68.97
2022-09-25T23:58:44.329Z,85.10
